sensor_id;sensor_type;location;lat;lon;timestamp;pressure;altitude;pressure_sealevel;temperature;humidity
24752;BME280;27246;52.376;4.628;2023-03-23T00:02:40;99895.91;;;10.26;100.00
24752;BME280;27246;52.376;4.628;2023-03-23T00:07:40;99892.72;;;10.29;100.00
24752;BME280;27246;52.376;4.628;2023-03-23T00:12:45;99884.47;;;10.29;100.00
24752;BME280;27246;52.376;4.628;2023-03-23T00:17:49;99883.41;;;10.30;100.00
24752;BME280;27246;52.376;4.628;2023-03-23T00:22:51;99881.94;;;10.34;100.00
24752;BME280;27246;52.376;4.628;2023-03-23T00:27:51;99870.09;;;10.33;100.00
24752;BME280;27246;52.376;4.628;2023-03-23T00:32:52;99879.00;;;10.35;100.00
24752;BME280;27246;52.376;4.628;2023-03-23T00:37:52;99868.63;;;10.37;100.00
24752;BME280;27246;52.376;4.628;2023-03-23T00:42:53;99862.69;;;10.40;100.00
24752;BME280;27246;52.376;4.628;2023-03-23T00:47:54;99854.84;;;10.37;100.00
24752;BME280;27246;52.376;4.628;2023-03-23T00:52:54;99877.53;;;10.39;100.00
24752;BME280;27246;52.376;4.628;2023-03-23T00:57:56;99856.34;;;10.40;100.00
24752;BME280;27246;52.376;4.628;2023-03-23T01:02:57;99844.91;;;10.43;100.00
24752;BME280;27246;52.376;4.628;2023-03-23T01:07:58;99841.94;;;10.38;100.00
24752;BME280;27246;52.376;4.628;2023-03-23T01:13:00;99837.06;;;10.47;100.00
24752;BME280;27246;52.376;4.628;2023-03-23T01:18:01;99840.03;;;10.45;100.00
24752;BME280;27246;52.376;4.628;2023-03-23T01:23:03;99825.41;;;10.45;100.00
24752;BME280;27246;52.376;4.628;2023-03-23T01:28:04;99830.72;;;10.46;100.00
24752;BME280;27246;52.376;4.628;2023-03-23T01:33:04;99821.00;;;10.44;100.00
24752;BME280;27246;52.376;4.628;2023-03-23T01:38:05;99814.59;;;10.43;100.00
24752;BME280;27246;52.376;4.628;2023-03-23T01:43:13;99816.31;;;10.44;100.00
24752;BME280;27246;52.376;4.628;2023-03-23T01:53:18;99798.53;;;10.47;100.00
24752;BME280;27246;52.376;4.628;2023-03-23T01:58:21;99788.78;;;10.44;100.00
24752;BME280;27246;52.376;4.628;2023-03-23T02:03:27;99788.59;;;10.46;100.00
24752;BME280;27246;52.376;4.628;2023-03-23T02:08:31;99792.59;;;10.43;100.00
24752;BME280;27246;52.376;4.628;2023-03-23T02:13:33;99787.72;;;10.38;100.00
24752;BME280;27246;52.376;4.628;2023-03-23T02:35:27;99785.38;;;10.29;100.00
24752;BME280;27246;52.376;4.628;2023-03-23T02:40:35;99781.78;;;10.28;100.00
24752;BME280;27246;52.376;4.628;2023-03-23T02:45:40;99774.16;;;10.24;100.00
24752;BME280;27246;52.376;4.628;2023-03-23T02:50:45;99789.59;;;10.25;100.00
24752;BME280;27246;52.376;4.628;2023-03-23T02:55:46;99791.72;;;10.23;100.00
24752;BME280;27246;52.376;4.628;2023-03-23T03:00:53;99781.53;;;10.16;100.00
24752;BME280;27246;52.376;4.628;2023-03-23T03:11:09;99785.81;;;10.26;100.00
24752;BME280;27246;52.376;4.628;2023-03-23T03:16:33;99792.75;;;10.08;100.00
24752;BME280;27246;52.376;4.628;2023-03-23T03:21:39;99816.41;;;10.02;100.00
24752;BME280;27246;52.376;4.628;2023-03-23T03:26:45;99821.84;;;9.82;100.00
24752;BME280;27246;52.376;4.628;2023-03-23T03:32:09;99811.25;;;9.73;100.00
24752;BME280;27246;52.376;4.628;2023-03-23T03:37:13;99798.53;;;9.72;100.00
24752;BME280;27246;52.376;4.628;2023-03-23T03:42:15;99798.09;;;9.68;100.00
24752;BME280;27246;52.376;4.628;2023-03-23T03:47:16;99799.16;;;9.67;100.00
24752;BME280;27246;52.376;4.628;2023-03-23T03:52:16;99803.59;;;9.68;100.00
24752;BME280;27246;52.376;4.628;2023-03-23T03:57:17;99799.81;;;9.69;100.00
24752;BME280;27246;52.376;4.628;2023-03-23T04:02:18;99803.66;;;9.75;100.00
24752;BME280;27246;52.376;4.628;2023-03-23T04:07:22;99805.50;;;9.68;100.00
24752;BME280;27246;52.376;4.628;2023-03-23T04:12:27;99834.25;;;9.58;100.00
24752;BME280;27246;52.376;4.628;2023-03-23T04:17:30;99826.81;;;9.52;100.00
24752;BME280;27246;52.376;4.628;2023-03-23T04:22:31;99823.34;;;9.44;100.00
24752;BME280;27246;52.376;4.628;2023-03-23T04:27:33;99820.00;;;9.48;100.00
24752;BME280;27246;52.376;4.628;2023-03-23T04:32:37;99843.66;;;9.43;100.00
24752;BME280;27246;52.376;4.628;2023-03-23T04:37:42;99839.38;;;9.33;100.00
24752;BME280;27246;52.376;4.628;2023-03-23T04:42:45;99858.78;;;9.32;100.00
24752;BME280;27246;52.376;4.628;2023-03-23T04:47:50;99849.84;;;9.23;100.00
24752;BME280;27246;52.376;4.628;2023-03-23T04:53:02;99859.91;;;9.16;100.00
24752;BME280;27246;52.376;4.628;2023-03-23T04:58:07;99862.94;;;9.21;100.00
24752;BME280;27246;52.376;4.628;2023-03-23T05:03:19;99859.72;;;9.17;100.00
24752;BME280;27246;52.376;4.628;2023-03-23T05:08:22;99864.13;;;9.12;100.00
24752;BME280;27246;52.376;4.628;2023-03-23T05:13:27;99879.31;;;9.08;100.00
24752;BME280;27246;52.376;4.628;2023-03-23T05:18:31;99881.41;;;9.06;100.00
24752;BME280;27246;52.376;4.628;2023-03-23T05:23:34;99875.25;;;9.04;100.00
24752;BME280;27246;52.376;4.628;2023-03-23T05:28:45;99875.91;;;9.06;100.00
24752;BME280;27246;52.376;4.628;2023-03-23T05:33:56;99876.38;;;9.09;100.00
24752;BME280;27246;52.376;4.628;2023-03-23T05:39:06;99883.91;;;9.00;100.00
24752;BME280;27246;52.376;4.628;2023-03-23T05:44:32;99904.63;;;9.03;100.00
24752;BME280;27246;52.376;4.628;2023-03-23T05:49:34;99913.41;;;8.92;100.00
24752;BME280;27246;52.376;4.628;2023-03-23T05:54:38;99906.63;;;8.88;100.00
24752;BME280;27246;52.376;4.628;2023-03-23T05:59:39;99905.50;;;8.82;100.00
24752;BME280;27246;52.376;4.628;2023-03-23T06:04:46;99918.19;;;8.83;100.00
24752;BME280;27246;52.376;4.628;2023-03-23T06:10:00;99927.19;;;8.77;100.00
24752;BME280;27246;52.376;4.628;2023-03-23T06:15:10;99914.97;;;8.79;100.00
24752;BME280;27246;52.376;4.628;2023-03-23T06:20:31;99944.13;;;8.80;100.00
24752;BME280;27246;52.376;4.628;2023-03-23T06:25:39;99942.09;;;8.89;100.00
24752;BME280;27246;52.376;4.628;2023-03-23T06:30:40;99963.75;;;8.77;100.00
24752;BME280;27246;52.376;4.628;2023-03-23T06:35:42;99977.09;;;8.80;100.00
24752;BME280;27246;52.376;4.628;2023-03-23T06:41:01;99973.09;;;8.83;100.00
24752;BME280;27246;52.376;4.628;2023-03-23T06:46:04;99957.75;;;8.89;100.00
24752;BME280;27246;52.376;4.628;2023-03-23T06:51:24;99976.69;;;8.84;100.00
24752;BME280;27246;52.376;4.628;2023-03-23T06:56:27;99979.72;;;8.89;100.00
24752;BME280;27246;52.376;4.628;2023-03-23T07:01:29;99989.84;;;8.88;100.00
24752;BME280;27246;52.376;4.628;2023-03-23T07:06:33;99970.16;;;8.85;100.00
24752;BME280;27246;52.376;4.628;2023-03-23T07:11:35;99972.13;;;8.91;100.00
24752;BME280;27246;52.376;4.628;2023-03-23T07:16:43;99985.69;;;8.92;100.00
24752;BME280;27246;52.376;4.628;2023-03-23T07:21:44;99982.09;;;8.92;100.00
24752;BME280;27246;52.376;4.628;2023-03-23T07:26:44;99993.28;;;8.75;100.00
24752;BME280;27246;52.376;4.628;2023-03-23T07:31:45;99998.66;;;8.84;100.00
24752;BME280;27246;52.376;4.628;2023-03-23T07:36:48;100005.50;;;8.88;100.00
24752;BME280;27246;52.376;4.628;2023-03-23T07:41:50;100004.00;;;9.07;100.00
24752;BME280;27246;52.376;4.628;2023-03-23T07:47:02;100013.41;;;9.19;100.00
24752;BME280;27246;52.376;4.628;2023-03-23T07:52:07;100009.78;;;9.33;100.00
24752;BME280;27246;52.376;4.628;2023-03-23T07:57:08;99998.25;;;9.45;100.00
24752;BME280;27246;52.376;4.628;2023-03-23T08:02:12;100008.34;;;9.66;100.00
24752;BME280;27246;52.376;4.628;2023-03-23T08:07:36;100016.25;;;9.75;100.00
24752;BME280;27246;52.376;4.628;2023-03-23T08:13:16;100018.03;;;9.90;99.85
24752;BME280;27246;52.376;4.628;2023-03-23T08:18:25;100010.69;;;9.97;98.81
24752;BME280;27246;52.376;4.628;2023-03-23T08:23:39;100024.94;;;10.07;98.93
24752;BME280;27246;52.376;4.628;2023-03-23T08:28:45;100018.84;;;10.18;98.70
24752;BME280;27246;52.376;4.628;2023-03-23T08:33:52;100028.25;;;10.31;97.36
24752;BME280;27246;52.376;4.628;2023-03-23T08:39:13;100030.25;;;10.50;97.24
24752;BME280;27246;52.376;4.628;2023-03-23T08:44:34;100034.16;;;10.69;95.59
24752;BME280;27246;52.376;4.628;2023-03-23T08:49:52;100045.81;;;10.71;93.43
24752;BME280;27246;52.376;4.628;2023-03-23T08:55:12;100045.47;;;10.88;92.61
24752;BME280;27246;52.376;4.628;2023-03-23T09:00:41;100054.50;;;10.75;92.18
24752;BME280;27246;52.376;4.628;2023-03-23T09:06:02;100056.69;;;10.86;92.13
24752;BME280;27246;52.376;4.628;2023-03-23T09:11:17;100060.38;;;11.07;90.68
24752;BME280;27246;52.376;4.628;2023-03-23T09:16:18;100061.72;;;11.24;89.09
24752;BME280;27246;52.376;4.628;2023-03-23T09:21:18;100065.25;;;11.11;88.90
24752;BME280;27246;52.376;4.628;2023-03-23T09:26:20;100060.44;;;11.33;87.82
24752;BME280;27246;52.376;4.628;2023-03-23T09:31:21;100054.97;;;11.53;85.87
24752;BME280;27246;52.376;4.628;2023-03-23T09:36:22;100070.88;;;11.45;85.04
24752;BME280;27246;52.376;4.628;2023-03-23T09:41:51;100073.00;;;11.56;84.93
24752;BME280;27246;52.376;4.628;2023-03-23T09:47:18;100073.22;;;11.54;84.82
24752;BME280;27246;52.376;4.628;2023-03-23T09:52:21;100088.09;;;11.73;83.68
24752;BME280;27246;52.376;4.628;2023-03-23T09:57:26;100092.94;;;11.58;84.84
24752;BME280;27246;52.376;4.628;2023-03-23T10:08:09;100096.75;;;11.70;82.85
24752;BME280;27246;52.376;4.628;2023-03-23T10:24:00;100124.81;;;12.00;80.30
24752;BME280;27246;52.376;4.628;2023-03-23T10:29:12;100113.56;;;12.15;81.56
24752;BME280;27246;52.376;4.628;2023-03-23T10:34:27;100099.09;;;12.27;79.51
24752;BME280;27246;52.376;4.628;2023-03-23T10:39:40;100115.47;;;12.48;79.88
24752;BME280;27246;52.376;4.628;2023-03-23T10:44:41;100111.41;;;12.51;77.20
24752;BME280;27246;52.376;4.628;2023-03-23T10:49:49;100121.19;;;12.60;77.01
24752;BME280;27246;52.376;4.628;2023-03-23T10:54:55;100132.38;;;12.85;77.19
24752;BME280;27246;52.376;4.628;2023-03-23T11:05:19;100114.19;;;13.09;72.10
24752;BME280;27246;52.376;4.628;2023-03-23T11:10:27;100120.19;;;12.99;69.52
24752;BME280;27246;52.376;4.628;2023-03-23T11:15:32;100129.09;;;13.08;71.65
24752;BME280;27246;52.376;4.628;2023-03-23T11:20:37;100138.88;;;13.11;73.00
24752;BME280;27246;52.376;4.628;2023-03-23T11:26:18;100135.56;;;12.75;75.08
24752;BME280;27246;52.376;4.628;2023-03-23T11:31:23;100132.75;;;12.95;75.09
24752;BME280;27246;52.376;4.628;2023-03-23T11:36:35;100119.66;;;12.71;74.85
24752;BME280;27246;52.376;4.628;2023-03-23T11:41:37;100122.03;;;12.54;74.71
24752;BME280;27246;52.376;4.628;2023-03-23T11:46:44;100112.63;;;12.75;75.47
24752;BME280;27246;52.376;4.628;2023-03-23T11:51:51;100132.31;;;12.98;73.27
24752;BME280;27246;52.376;4.628;2023-03-23T11:56:54;100121.34;;;13.24;71.58
24752;BME280;27246;52.376;4.628;2023-03-23T12:18:55;100149.19;;;13.80;66.01
24752;BME280;27246;52.376;4.628;2023-03-23T12:29:48;100152.31;;;13.91;65.51
24752;BME280;27246;52.376;4.628;2023-03-23T12:46:13;100130.44;;;14.08;66.14
24752;BME280;27246;52.376;4.628;2023-03-23T12:51:29;100141.16;;;14.23;65.19
24752;BME280;27246;52.376;4.628;2023-03-23T12:56:34;100136.53;;;13.91;65.11
24752;BME280;27246;52.376;4.628;2023-03-23T13:01:48;100134.81;;;13.90;66.26
24752;BME280;27246;52.376;4.628;2023-03-23T13:06:51;100141.94;;;14.05;66.02
24752;BME280;27246;52.376;4.628;2023-03-23T13:11:54;100153.69;;;13.68;66.46
24752;BME280;27246;52.376;4.628;2023-03-23T13:22:25;100156.09;;;13.65;63.81
24752;BME280;27246;52.376;4.628;2023-03-23T13:27:29;100160.22;;;14.12;63.53
24752;BME280;27246;52.376;4.628;2023-03-23T13:32:38;100152.81;;;14.06;62.91
24752;BME280;27246;52.376;4.628;2023-03-23T13:37:44;100151.81;;;14.26;63.92
24752;BME280;27246;52.376;4.628;2023-03-23T13:42:51;100150.91;;;14.32;64.65
24752;BME280;27246;52.376;4.628;2023-03-23T13:48:17;100143.09;;;13.97;65.21
24752;BME280;27246;52.376;4.628;2023-03-23T13:53:28;100137.09;;;14.00;66.00
24752;BME280;27246;52.376;4.628;2023-03-23T13:58:47;100121.13;;;13.70;66.12
24752;BME280;27246;52.376;4.628;2023-03-23T14:03:49;100135.16;;;13.75;65.41
24752;BME280;27246;52.376;4.628;2023-03-23T14:08:54;100120.03;;;13.33;66.43
24752;BME280;27246;52.376;4.628;2023-03-23T14:14:04;100132.44;;;13.62;66.66
24752;BME280;27246;52.376;4.628;2023-03-23T14:19:19;100120.63;;;13.80;66.52
24752;BME280;27246;52.376;4.628;2023-03-23T14:24:39;100119.38;;;13.76;65.76
24752;BME280;27246;52.376;4.628;2023-03-23T14:29:40;100103.53;;;13.90;66.00
24752;BME280;27246;52.376;4.628;2023-03-23T14:34:41;100090.03;;;13.68;65.42
24752;BME280;27246;52.376;4.628;2023-03-23T14:39:48;100088.50;;;13.79;65.78
24752;BME280;27246;52.376;4.628;2023-03-23T14:44:50;100096.13;;;13.84;65.50
24752;BME280;27246;52.376;4.628;2023-03-23T14:49:59;100075.94;;;13.76;66.01
24752;BME280;27246;52.376;4.628;2023-03-23T14:55:21;100064.69;;;13.71;65.70
24752;BME280;27246;52.376;4.628;2023-03-23T15:00:28;100062.75;;;13.78;64.37
24752;BME280;27246;52.376;4.628;2023-03-23T15:05:34;100070.84;;;13.73;64.54
24752;BME280;27246;52.376;4.628;2023-03-23T15:10:36;100066.50;;;13.84;63.77
24752;BME280;27246;52.376;4.628;2023-03-23T15:15:38;100057.25;;;13.33;65.01
24752;BME280;27246;52.376;4.628;2023-03-23T15:25:51;100046.81;;;13.35;66.62
24752;BME280;27246;52.376;4.628;2023-03-23T15:30:54;100022.31;;;13.14;66.73
24752;BME280;27246;52.376;4.628;2023-03-23T15:35:58;100019.13;;;13.10;67.50
24752;BME280;27246;52.376;4.628;2023-03-23T15:41:01;100022.72;;;13.11;67.08
24752;BME280;27246;52.376;4.628;2023-03-23T15:51:06;100017.56;;;13.21;67.26
24752;BME280;27246;52.376;4.628;2023-03-23T15:56:11;100031.59;;;13.26;67.36
24752;BME280;27246;52.376;4.628;2023-03-23T16:01:17;100032.63;;;13.25;67.78
24752;BME280;27246;52.376;4.628;2023-03-23T16:06:22;100037.41;;;13.11;67.98
24752;BME280;27246;52.376;4.628;2023-03-23T16:11:28;100059.41;;;12.93;69.68
24752;BME280;27246;52.376;4.628;2023-03-23T16:21:33;100040.59;;;12.70;70.05
24752;BME280;27246;52.376;4.628;2023-03-23T16:26:36;100032.31;;;12.70;70.21
24752;BME280;27246;52.376;4.628;2023-03-23T16:31:39;100045.06;;;12.64;69.57
24752;BME280;27246;52.376;4.628;2023-03-23T16:36:41;100037.03;;;12.56;69.94
24752;BME280;27246;52.376;4.628;2023-03-23T16:41:42;100037.25;;;12.54;70.18
24752;BME280;27246;52.376;4.628;2023-03-23T16:46:44;100020.50;;;12.49;70.52
24752;BME280;27246;52.376;4.628;2023-03-23T16:51:46;100021.31;;;12.43;70.61
24752;BME280;27246;52.376;4.628;2023-03-23T16:56:48;100029.00;;;12.34;71.01
24752;BME280;27246;52.376;4.628;2023-03-23T17:01:50;100013.28;;;12.35;71.03
24752;BME280;27246;52.376;4.628;2023-03-23T17:06:52;100012.22;;;12.36;70.90
24752;BME280;27246;52.376;4.628;2023-03-23T17:11:54;100009.47;;;12.36;71.11
24752;BME280;27246;52.376;4.628;2023-03-23T17:16:56;99998.41;;;12.36;70.21
24752;BME280;27246;52.376;4.628;2023-03-23T17:21:59;99992.28;;;12.34;70.82
24752;BME280;27246;52.376;4.628;2023-03-23T17:27:00;99988.44;;;12.35;70.62
24752;BME280;27246;52.376;4.628;2023-03-23T17:32:02;99986.53;;;12.35;70.57
24752;BME280;27246;52.376;4.628;2023-03-23T17:37:04;99995.44;;;12.31;71.34
24752;BME280;27246;52.376;4.628;2023-03-23T17:42:06;99985.28;;;12.31;71.42
24752;BME280;27246;52.376;4.628;2023-03-23T17:47:08;99971.22;;;12.33;70.90
24752;BME280;27246;52.376;4.628;2023-03-23T17:52:10;99978.47;;;12.27;70.91
24752;BME280;27246;52.376;4.628;2023-03-23T17:57:13;99985.47;;;12.30;70.80
24752;BME280;27246;52.376;4.628;2023-03-23T18:02:15;99985.03;;;12.33;70.35
24752;BME280;27246;52.376;4.628;2023-03-23T18:07:19;99972.94;;;12.34;70.67
24752;BME280;27246;52.376;4.628;2023-03-23T18:12:23;99964.00;;;12.38;70.52
24752;BME280;27246;52.376;4.628;2023-03-23T18:17:25;99962.53;;;12.36;71.07
24752;BME280;27246;52.376;4.628;2023-03-23T18:22:27;99952.09;;;12.38;72.49
24752;BME280;27246;52.376;4.628;2023-03-23T18:27:29;99979.09;;;12.36;74.70
24752;BME280;27246;52.376;4.628;2023-03-23T18:32:34;99971.22;;;12.26;82.01
24752;BME280;27246;52.376;4.628;2023-03-23T18:37:37;99956.19;;;12.15;86.19
24752;BME280;27246;52.376;4.628;2023-03-23T18:42:42;99947.53;;;12.05;88.21
24752;BME280;27246;52.376;4.628;2023-03-23T18:47:45;99952.78;;;12.07;91.59
24752;BME280;27246;52.376;4.628;2023-03-23T18:52:47;99934.59;;;11.99;94.54
24752;BME280;27246;52.376;4.628;2023-03-23T18:57:49;99929.47;;;11.96;96.93
24752;BME280;27246;52.376;4.628;2023-03-23T19:02:50;99919.78;;;11.73;97.27
24752;BME280;27246;52.376;4.628;2023-03-23T19:07:53;99905.97;;;11.73;99.22
24752;BME280;27246;52.376;4.628;2023-03-23T19:12:55;99905.78;;;11.75;99.59
24752;BME280;27246;52.376;4.628;2023-03-23T19:17:57;99904.72;;;11.69;100.00
24752;BME280;27246;52.376;4.628;2023-03-23T19:22:59;99894.34;;;11.65;100.00
24752;BME280;27246;52.376;4.628;2023-03-23T19:28:01;99887.13;;;11.57;100.00
24752;BME280;27246;52.376;4.628;2023-03-23T19:33:06;99876.31;;;11.55;100.00
24752;BME280;27246;52.376;4.628;2023-03-23T19:38:07;99873.34;;;11.57;100.00
24752;BME280;27246;52.376;4.628;2023-03-23T19:43:09;99861.91;;;11.47;100.00
24752;BME280;27246;52.376;4.628;2023-03-23T19:48:11;99842.16;;;11.56;100.00
24752;BME280;27246;52.376;4.628;2023-03-23T19:53:13;99838.13;;;11.59;100.00
24752;BME280;27246;52.376;4.628;2023-03-23T19:58:14;99825.41;;;11.51;100.00
24752;BME280;27246;52.376;4.628;2023-03-23T20:03:16;99835.19;;;11.40;100.00
24752;BME280;27246;52.376;4.628;2023-03-23T20:08:18;99818.22;;;11.37;100.00
24752;BME280;27246;52.376;4.628;2023-03-23T20:13:20;99815.69;;;11.35;100.00
24752;BME280;27246;52.376;4.628;2023-03-23T20:18:21;99811.03;;;11.29;100.00
24752;BME280;27246;52.376;4.628;2023-03-23T20:23:23;99813.38;;;11.19;100.00
24752;BME280;27246;52.376;4.628;2023-03-23T20:28:26;99806.38;;;11.23;100.00
24752;BME280;27246;52.376;4.628;2023-03-23T20:33:28;99788.16;;;11.22;100.00
24752;BME280;27246;52.376;4.628;2023-03-23T20:38:34;99792.59;;;11.23;100.00
24752;BME280;27246;52.376;4.628;2023-03-23T20:43:41;99783.09;;;11.12;100.00
24752;BME280;27246;52.376;4.628;2023-03-23T20:48:43;99775.66;;;11.13;100.00
24752;BME280;27246;52.376;4.628;2023-03-23T20:53:46;99772.69;;;11.08;100.00
24752;BME280;27246;52.376;4.628;2023-03-23T20:58:48;99764.22;;;11.16;100.00
24752;BME280;27246;52.376;4.628;2023-03-23T21:03:51;99747.66;;;11.09;100.00
24752;BME280;27246;52.376;4.628;2023-03-23T21:08:55;99740.03;;;11.18;100.00
24752;BME280;27246;52.376;4.628;2023-03-23T21:13:57;99718.81;;;11.12;100.00
24752;BME280;27246;52.376;4.628;2023-03-23T21:18:59;99701.25;;;11.13;100.00
24752;BME280;27246;52.376;4.628;2023-03-23T21:24:01;99710.56;;;11.12;100.00
24752;BME280;27246;52.376;4.628;2023-03-23T21:29:03;99695.94;;;11.11;100.00
24752;BME280;27246;52.376;4.628;2023-03-23T21:34:10;99676.47;;;10.99;100.00
24752;BME280;27246;52.376;4.628;2023-03-23T21:39:14;99683.22;;;11.04;100.00
24752;BME280;27246;52.376;4.628;2023-03-23T21:44:16;99672.22;;;11.04;100.00
24752;BME280;27246;52.376;4.628;2023-03-23T21:49:18;99655.03;;;11.01;100.00
24752;BME280;27246;52.376;4.628;2023-03-23T21:54:20;99657.19;;;10.93;100.00
24752;BME280;27246;52.376;4.628;2023-03-23T21:59:23;99657.13;;;11.13;100.00
24752;BME280;27246;52.376;4.628;2023-03-23T22:04:24;99641.03;;;11.10;100.00
24752;BME280;27246;52.376;4.628;2023-03-23T22:09:26;99642.34;;;11.00;100.00
24752;BME280;27246;52.376;4.628;2023-03-23T22:14:28;99634.75;;;10.89;100.00
24752;BME280;27246;52.376;4.628;2023-03-23T22:19:30;99616.91;;;10.85;100.00
24752;BME280;27246;52.376;4.628;2023-03-23T22:24:33;99609.94;;;10.89;100.00
24752;BME280;27246;52.376;4.628;2023-03-23T22:29:35;99609.31;;;10.94;100.00
24752;BME280;27246;52.376;4.628;2023-03-23T22:34:36;99597.00;;;10.96;100.00
24752;BME280;27246;52.376;4.628;2023-03-23T22:39:38;99581.34;;;10.84;100.00
24752;BME280;27246;52.376;4.628;2023-03-23T22:44:40;99582.19;;;10.84;100.00
24752;BME280;27246;52.376;4.628;2023-03-23T22:49:42;99571.16;;;10.77;100.00
24752;BME280;27246;52.376;4.628;2023-03-23T22:54:43;99554.69;;;10.71;100.00
24752;BME280;27246;52.376;4.628;2023-03-23T22:59:48;99555.56;;;10.65;100.00
24752;BME280;27246;52.376;4.628;2023-03-23T23:04:50;99522.88;;;10.75;100.00
24752;BME280;27246;52.376;4.628;2023-03-23T23:09:52;99531.84;;;10.64;100.00
24752;BME280;27246;52.376;4.628;2023-03-23T23:14:54;99528.50;;;10.48;100.00
24752;BME280;27246;52.376;4.628;2023-03-23T23:19:56;99512.00;;;10.41;100.00
24752;BME280;27246;52.376;4.628;2023-03-23T23:24:58;99509.03;;;10.43;100.00
24752;BME280;27246;52.376;4.628;2023-03-23T23:30:00;99488.25;;;10.54;100.00
24752;BME280;27246;52.376;4.628;2023-03-23T23:35:03;99480.19;;;10.52;100.00
24752;BME280;27246;52.376;4.628;2023-03-23T23:40:05;99472.97;;;10.58;100.00
24752;BME280;27246;52.376;4.628;2023-03-23T23:45:08;99456.88;;;10.55;100.00
24752;BME280;27246;52.376;4.628;2023-03-23T23:50:13;99452.03;;;10.50;100.00
24752;BME280;27246;52.376;4.628;2023-03-23T23:55:16;99447.09;;;10.66;100.00
